»·PEaware :: N424TS KAPA-KLBF

N424TS :: KAPA-KLBF

FLIGHT INFORMATION

Flight Status: Arrived
Operator: Privately registered:
United States
More flights under this callsign
Pilot: Matthew M. (8235)
Aircraft: Diamond DA-62
(DA62)
More flights by this aircraft type
Origin: KAPA Centennial
United States
Destination: KLBF North Platte Regl-Bird
United States
More flights between these airports :: More routes between these airports
Route:
File this flight plan on PilotEdge
Remarks:
Altitude:
(Current/Filed)
12,500ft
Speed:
(Current/Filed)
160kts
Departed: 06-Jul-20 01:18 PM
Arrived: 06-Jul-20 02:32 PM
Distance/Time
Traveled:
212nm/1:14
Distance/Time
To Go:
Arrived

Flight Plot

Page will automatically refresh every two minutes.

Flight plan parsing failed; only flown route is shown


Map Options




Map Legend


Flown Route
Filed Route
Departure Airport
Arrival Airport
Navaid (VOR, NDB)
Fix

Horizontal Profiles

Position Reports

Time Latitude Longitude Heading Altitude Ground
Speed
06-Jul-20 13:04 39.573700 -104.841568 307 5888ft 0kts
06-Jul-20 13:05 39.573700 -104.841568 307 5888ft 0kts
06-Jul-20 13:06 39.573700 -104.841568 307 5888ft 0kts
06-Jul-20 13:07 39.573700 -104.841568 307 5888ft 0kts
06-Jul-20 13:08 39.573983 -104.843913 266 5888ft 11kts
06-Jul-20 13:09 39.573759 -104.847161 201 5888ft 7kts
06-Jul-20 13:10 39.573632 -104.847243 243 5888ft 0kts
06-Jul-20 13:11 39.573951 -104.848873 296 5888ft 13kts
06-Jul-20 13:12 39.578850 -104.849820 357 5888ft 24kts
06-Jul-20 13:13 39.583897 -104.850053 357 5888ft 5kts
06-Jul-20 13:14 39.584113 -104.850330 267 5888ft 0kts
06-Jul-20 13:15 39.584113 -104.850330 267 5888ft 0kts
06-Jul-20 13:16 39.584060 -104.851193 259 5888ft 16kts
06-Jul-20 13:17 39.563796 -104.850638 181 6048ft 119kts
06-Jul-20 13:18 39.548691 -104.815513 87 7042ft 139kts
06-Jul-20 13:19 39.550658 -104.760470 87 7413ft 171kts
06-Jul-20 13:20 39.552790 -104.699293 86 7564ft 172kts
06-Jul-20 13:21 39.555378 -104.636545 74 7558ft 177kts
06-Jul-20 13:22 39.573404 -104.576932 66 7559ft 176kts
06-Jul-20 13:23 39.596805 -104.521347 57 7557ft 175kts
06-Jul-20 13:24 39.621456 -104.467423 58 7555ft 174kts
06-Jul-20 13:25 39.646070 -104.413209 58 7554ft 174kts
06-Jul-20 13:26 39.670678 -104.358852 58 7552ft 174kts
06-Jul-20 13:27 39.695033 -104.305014 59 7544ft 173kts
06-Jul-20 13:28 39.719197 -104.251562 60 7719ft 167kts
06-Jul-20 13:29 39.742438 -104.199945 60 8216ft 165kts
06-Jul-20 13:30 39.765577 -104.148458 61 8717ft 166kts
06-Jul-20 13:31 39.789179 -104.095920 61 9224ft 169kts
06-Jul-20 13:32 39.813539 -104.041520 61 9509ft 183kts
06-Jul-20 13:33 39.838738 -103.985242 61 10000ft 178kts
06-Jul-20 13:34 39.863460 -103.929868 61 10499ft 175kts
06-Jul-20 13:35 39.887901 -103.875044 61 11000ft 175kts
06-Jul-20 13:36 39.912469 -103.819750 61 11460ft 179kts
06-Jul-20 13:37 39.936709 -103.765266 59 11469ft 163kts
06-Jul-20 13:38 39.958077 -103.716609 62 11471ft 149kts
06-Jul-20 13:39 39.978431 -103.670476 62 11473ft 144kts
06-Jul-20 13:40 40.000720 -103.620638 61 11485ft 172kts
06-Jul-20 13:41 40.025513 -103.564495 60 11490ft 180kts
06-Jul-20 13:42 40.050676 -103.507403 61 11498ft 182kts
06-Jul-20 13:43 40.075934 -103.449978 61 11507ft 183kts
06-Jul-20 13:44 40.101276 -103.392267 61 11509ft 184kts
06-Jul-20 13:45 40.126553 -103.334572 62 11508ft 183kts
06-Jul-20 13:46 40.151816 -103.276821 62 11508ft 183kts
06-Jul-20 13:47 40.177078 -103.218787 62 11508ft 183kts
06-Jul-20 13:49 40.201750 -103.160225 62 11508ft 183kts
06-Jul-20 13:50 40.226324 -103.101718 62 11508ft 183kts
06-Jul-20 13:51 40.251023 -103.042795 62 11508ft 184kts
06-Jul-20 13:52 40.275630 -102.983991 62 11508ft 184kts
06-Jul-20 13:53 40.300190 -102.925187 62 11505ft 184kts
06-Jul-20 13:54 40.325125 -102.865368 62 11496ft 190kts
06-Jul-20 13:55 40.350731 -102.803822 62 11482ft 192kts
06-Jul-20 13:56 40.376360 -102.742094 62 11474ft 193kts
06-Jul-20 13:57 40.402032 -102.680124 62 11472ft 193kts
06-Jul-20 13:58 40.427666 -102.618317 62 11472ft 193kts
06-Jul-20 13:59 40.453274 -102.556286 62 11472ft 193kts
06-Jul-20 14:00 40.478658 -102.494627 62 11536ft 191kts
06-Jul-20 14:01 40.504092 -102.432725 62 11536ft 193kts
06-Jul-20 14:02 40.529585 -102.370558 62 11536ft 193kts
06-Jul-20 14:03 40.554968 -102.308528 62 11536ft 193kts
06-Jul-20 14:04 40.583382 -102.248593 54 11536ft 193kts
06-Jul-20 14:05 40.615346 -102.191536 54 11536ft 193kts
06-Jul-20 14:06 40.647406 -102.134469 54 11536ft 193kts
06-Jul-20 14:06 40.674118 -102.086862 54 11536ft 194kts
06-Jul-20 14:08 40.711502 -102.020097 54 11536ft 194kts
06-Jul-20 14:09 40.743514 -101.962814 54 11534ft 194kts
06-Jul-20 14:09 40.770212 -101.914966 54 11529ft 194kts
06-Jul-20 14:11 40.807457 -101.848084 54 11520ft 194kts
06-Jul-20 14:11 40.834088 -101.800177 54 11514ft 194kts
06-Jul-20 14:12 40.865905 -101.742834 54 11509ft 193kts
06-Jul-20 14:13 40.884915 -101.676815 72 11512ft 192kts
06-Jul-20 14:14 40.901618 -101.609829 72 11513ft 192kts
06-Jul-20 14:15 40.918250 -101.542584 72 11514ft 192kts
06-Jul-20 14:16 40.934840 -101.475279 72 11512ft 192kts
06-Jul-20 14:17 40.951336 -101.408148 72 11511ft 192kts
06-Jul-20 14:18 40.967738 -101.341242 73 11509ft 192kts
06-Jul-20 14:19 40.984230 -101.273526 73 11509ft 193kts
06-Jul-20 14:20 41.000681 -101.205864 73 11512ft 193kts
06-Jul-20 14:21 41.017137 -101.138131 73 11514ft 194kts
06-Jul-20 14:22 41.033751 -101.069547 73 11517ft 195kts
06-Jul-20 14:23 41.050285 -101.001070 73 11519ft 196kts
06-Jul-20 14:24 41.066789 -100.932519 73 11502ft 192kts
06-Jul-20 14:25 41.092817 -100.872110 49 9515ft 194kts
06-Jul-20 14:26 41.127612 -100.818880 49 7560ft 190kts
06-Jul-20 14:27 41.161754 -100.767840 49 5718ft 181kts
06-Jul-20 14:28 41.176075 -100.718042 106 4778ft 119kts
06-Jul-20 14:29 41.155234 -100.692320 178 3637ft 111kts
06-Jul-20 14:30 41.129668 -100.692907 179 2775ft 64kts
06-Jul-20 14:31 41.125556 -100.694125 0 2774ft 11kts
06-Jul-20 14:32 41.130068 -100.694026 0 2776ft 20kts
06-Jul-20 14:33 41.131828 -100.695970 85 2776ft 1kts

Navigation Log

Ident Type
Flight plan parsing failed, navigation log unavailable